Aeroporto :
LOGIN :

Iscrizione | Disclaimer

   EN    FR    IT 

 










Sommario :    VFR   VFR Marginale   IFR   IFR Intensivo   IFR Molto Intensivo
Visibilità : 
Base nubi : 
>= 8 km
>= 3000ft
5 / 8 km
1000 / 3000 ft
1500m / 5 km
500 / 1000 ft
800 / 1500m
200 / 500 ft
< 800m
< 200 ft
Simboli :   Temporali  Nebbia  Neve Forte  Precipitazioni Forti  Vento > 20 kt
SIGMETs :   Varie  Temporali  Ghiacco  Turbolenza  Onda orograficha  Ceneri Vulcaniche






- Altitudine del aeroporto : 390 ft
- Codice IATA : NQY


EGHQ - Newquay

ULTIMO METAR :
  • 281620Z 26011KT 240V300 9999 2000N -RA FEW003 BKN012 13/11 Q1011

METARs OBSOLETI :
  • 281550Z 24009KT 9999 6000NW VCSH SCT007 SCT012 13/12 Q1010
  • 281520Z 24008KT 9999 VCSH SCT004 SCT020 13/12 Q1010
  • 281450Z 26008KT 9999 BKN004 13/13 Q1010
  • 281420Z 26007KT 6000 -RADZ OVC004 13/13 Q1010 RERA
  • 281350Z 24007KT 9999 8000SW VCSH BKN004 13/12 Q1010 RERA

TAF AMD TAF EGHQ
Valido dal 28 a 15 ore il 29 a 00 ore UTC


281504Z 2815/2824 20012KT 9999 SCT020
BECMG 2815/2818 29010KT
TEMPO 2815/2816 BKN004
PROB40
TEMPO 2815/2821 30015G25KT 7000 SHRA



MetMap, La meteo Aeronautica in un colpo d'occhio ! - Copyright ORBIFLY Dicembre 2007 - Disclaimer

ORBIFLY MET'MAP TEAM :

Programmazione e sviluppo : Alexandra Zaïnal
Concezione : Baudouin d'Aumeries
Aiuto per la programmazione : Marc-Olivier Méhu
Supporto tecnico e logistico : Manuel Goepfert
Aiuto per la traduzione : Arnaldo La Scala

Contatto : metmap@orbifly.com




FONTI E CREDITI :

   NOAA